Avon, Utah
Current Conditions -  °F | °C
As of 8:55 AM on Thursday 23 Oct 2014 (Local Time) from KBMC Reporting Station
Clear Clear  
Wind Chill: 38°   Ceiling: Unl
Heat Index: 42°   Visibility: 10mi
Dew Point: 33°   Wind: 6mph
Humidity: 72%   Direction: 340°NNW
Pressure: 30.16"   Gusts: NA
Location:  41.5397°N, 111.856°W
Report Text: KBMC 231455Z AUTO 34005KT 10SM CLR 05/01 A3016 RMK AO1 T00530006
Loading
Personal Weather Stations






























Interactive Weather Map New forecast layout! Learn more

10-Day Weather Forecast

Advertisements
Track Severe Weather on mobile